sensor_id;sensor_type;location;lat;lon;timestamp;P1;durP1;ratioP1;P2;durP2;ratioP2
4353;SDS011;11018;51.258;6.806;2022-10-19T00:02:02;18.27;;;8.73;;
4353;SDS011;11018;51.258;6.806;2022-10-19T00:04:27;21.27;;;8.35;;
4353;SDS011;11018;51.258;6.806;2022-10-19T00:06:53;24.58;;;8.88;;
4353;SDS011;11018;51.258;6.806;2022-10-19T00:09:19;21.73;;;8.20;;
4353;SDS011;11018;51.258;6.806;2022-10-19T00:11:45;27.70;;;8.30;;
4353;SDS011;11018;51.258;6.806;2022-10-19T00:14:16;23.90;;;8.20;;
4353;SDS011;11018;51.258;6.806;2022-10-19T00:16:45;16.33;;;8.07;;
4353;SDS011;11018;51.258;6.806;2022-10-19T00:19:13;20.20;;;7.45;;
4353;SDS011;11018;51.258;6.806;2022-10-19T00:21:40;16.58;;;6.95;;
4353;SDS011;11018;51.258;6.806;2022-10-19T00:24:06;16.50;;;6.68;;
4353;SDS011;11018;51.258;6.806;2022-10-19T00:26:32;16.73;;;6.70;;
4353;SDS011;11018;51.258;6.806;2022-10-19T00:28:58;19.40;;;6.70;;
4353;SDS011;11018;51.258;6.806;2022-10-19T00:31:24;12.40;;;6.60;;
4353;SDS011;11018;51.258;6.806;2022-10-19T00:33:51;24.52;;;7.50;;
4353;SDS011;11018;51.258;6.806;2022-10-19T00:38:45;15.20;;;7.40;;
4353;SDS011;11018;51.258;6.806;2022-10-19T00:41:11;18.42;;;6.90;;
4353;SDS011;11018;51.258;6.806;2022-10-19T00:46:38;11.77;;;6.10;;
4353;SDS011;11018;51.258;6.806;2022-10-19T00:49:06;16.42;;;6.20;;
4353;SDS011;11018;51.258;6.806;2022-10-19T00:51:33;15.95;;;6.65;;
4353;SDS011;11018;51.258;6.806;2022-10-19T00:54:03;14.60;;;6.70;;
4353;SDS011;11018;51.258;6.806;2022-10-19T00:56:30;15.13;;;7.13;;
4353;SDS011;11018;51.258;6.806;2022-10-19T00:58:57;25.42;;;7.85;;
4353;SDS011;11018;51.258;6.806;2022-10-19T01:01:22;13.65;;;6.80;;
4353;SDS011;11018;51.258;6.806;2022-10-19T01:03:51;16.55;;;6.97;;
4353;SDS011;11018;51.258;6.806;2022-10-19T01:06:17;15.13;;;6.45;;
4353;SDS011;11018;51.258;6.806;2022-10-19T01:08:43;19.13;;;6.72;;
4353;SDS011;11018;51.258;6.806;2022-10-19T01:22:26;22.50;;;7.30;;
4353;SDS011;11018;51.258;6.806;2022-10-19T01:30:51;12.10;;;6.43;;
4353;SDS011;11018;51.258;6.806;2022-10-19T01:36:03;19.13;;;6.65;;
4353;SDS011;11018;51.258;6.806;2022-10-19T01:38:40;18.48;;;7.00;;
4353;SDS011;11018;51.258;6.806;2022-10-19T01:41:36;20.23;;;7.80;;
4353;SDS011;11018;51.258;6.806;2022-10-19T01:44:11;19.25;;;6.72;;
4353;SDS011;11018;51.258;6.806;2022-10-19T01:46:55;16.90;;;6.90;;
4353;SDS011;11018;51.258;6.806;2022-10-19T01:49:31;18.63;;;7.07;;
4353;SDS011;11018;51.258;6.806;2022-10-19T01:52:05;25.60;;;8.00;;
4353;SDS011;11018;51.258;6.806;2022-10-19T01:54:34;18.25;;;6.82;;
4353;SDS011;11018;51.258;6.806;2022-10-19T01:57:04;23.15;;;7.55;;
4353;SDS011;11018;51.258;6.806;2022-10-19T01:59:32;20.27;;;7.32;;
4353;SDS011;11018;51.258;6.806;2022-10-19T02:02:00;19.38;;;7.60;;
4353;SDS011;11018;51.258;6.806;2022-10-19T02:04:28;19.27;;;7.20;;
4353;SDS011;11018;51.258;6.806;2022-10-19T02:06:55;16.52;;;7.13;;
4353;SDS011;11018;51.258;6.806;2022-10-19T02:09:22;18.35;;;7.13;;
4353;SDS011;11018;51.258;6.806;2022-10-19T02:11:51;24.97;;;8.80;;
4353;SDS011;11018;51.258;6.806;2022-10-19T02:14:21;18.13;;;7.40;;
4353;SDS011;11018;51.258;6.806;2022-10-19T02:16:51;16.55;;;7.30;;
4353;SDS011;11018;51.258;6.806;2022-10-19T02:19:23;22.70;;;8.65;;
4353;SDS011;11018;51.258;6.806;2022-10-19T02:21:49;20.13;;;8.77;;
4353;SDS011;11018;51.258;6.806;2022-10-19T02:24:15;28.15;;;9.30;;
4353;SDS011;11018;51.258;6.806;2022-10-19T02:26:41;25.45;;;8.80;;
4353;SDS011;11018;51.258;6.806;2022-10-19T02:29:07;23.45;;;7.70;;
4353;SDS011;11018;51.258;6.806;2022-10-19T02:31:35;21.60;;;9.10;;
4353;SDS011;11018;51.258;6.806;2022-10-19T02:34:01;24.53;;;9.40;;
4353;SDS011;11018;51.258;6.806;2022-10-19T02:36:26;24.23;;;10.00;;
4353;SDS011;11018;51.258;6.806;2022-10-19T02:38:52;25.10;;;9.30;;
4353;SDS011;11018;51.258;6.806;2022-10-19T02:41:26;28.15;;;9.70;;
4353;SDS011;11018;51.258;6.806;2022-10-19T02:44:04;25.67;;;9.40;;
4353;SDS011;11018;51.258;6.806;2022-10-19T02:46:39;24.98;;;9.90;;
4353;SDS011;11018;51.258;6.806;2022-10-19T02:49:08;27.65;;;9.80;;
4353;SDS011;11018;51.258;6.806;2022-10-19T02:51:40;22.33;;;9.52;;
4353;SDS011;11018;51.258;6.806;2022-10-19T02:54:22;24.40;;;9.88;;
4353;SDS011;11018;51.258;6.806;2022-10-19T02:56:48;25.90;;;10.70;;
4353;SDS011;11018;51.258;6.806;2022-10-19T02:59:13;20.33;;;9.80;;
4353;SDS011;11018;51.258;6.806;2022-10-19T03:01:39;30.17;;;11.50;;
4353;SDS011;11018;51.258;6.806;2022-10-19T03:04:04;28.95;;;10.50;;
4353;SDS011;11018;51.258;6.806;2022-10-19T03:06:30;23.00;;;10.23;;
4353;SDS011;11018;51.258;6.806;2022-10-19T03:08:55;24.17;;;9.95;;
4353;SDS011;11018;51.258;6.806;2022-10-19T03:11:21;24.42;;;9.30;;
4353;SDS011;11018;51.258;6.806;2022-10-19T03:13:46;27.57;;;9.10;;
4353;SDS011;11018;51.258;6.806;2022-10-19T03:16:12;19.93;;;8.87;;
4353;SDS011;11018;51.258;6.806;2022-10-19T03:18:38;22.75;;;9.07;;
4353;SDS011;11018;51.258;6.806;2022-10-19T03:21:12;19.70;;;9.07;;
4353;SDS011;11018;51.258;6.806;2022-10-19T03:23:38;23.70;;;10.50;;
4353;SDS011;11018;51.258;6.806;2022-10-19T03:26:05;22.83;;;9.77;;
4353;SDS011;11018;51.258;6.806;2022-10-19T03:28:32;18.10;;;8.63;;
4353;SDS011;11018;51.258;6.806;2022-10-19T03:30:58;26.83;;;9.00;;
4353;SDS011;11018;51.258;6.806;2022-10-19T03:33:24;18.85;;;8.65;;
4353;SDS011;11018;51.258;6.806;2022-10-19T03:35:49;21.40;;;8.27;;
4353;SDS011;11018;51.258;6.806;2022-10-19T03:38:15;18.25;;;8.25;;
4353;SDS011;11018;51.258;6.806;2022-10-19T03:40:41;19.90;;;8.40;;
4353;SDS011;11018;51.258;6.806;2022-10-19T03:43:07;28.63;;;9.50;;
4353;SDS011;11018;51.258;6.806;2022-10-19T03:45:33;23.13;;;9.37;;
4353;SDS011;11018;51.258;6.806;2022-10-19T03:47:58;19.63;;;9.30;;
4353;SDS011;11018;51.258;6.806;2022-10-19T03:50:24;28.37;;;9.13;;
4353;SDS011;11018;51.258;6.806;2022-10-19T03:52:49;23.97;;;8.80;;
4353;SDS011;11018;51.258;6.806;2022-10-19T03:55:15;23.10;;;9.30;;
4353;SDS011;11018;51.258;6.806;2022-10-19T03:57:41;18.10;;;9.10;;
4353;SDS011;11018;51.258;6.806;2022-10-19T04:00:07;23.25;;;9.65;;
4353;SDS011;11018;51.258;6.806;2022-10-19T04:02:33;18.00;;;8.98;;
4353;SDS011;11018;51.258;6.806;2022-10-19T04:04:59;24.73;;;8.97;;
4353;SDS011;11018;51.258;6.806;2022-10-19T04:07:25;21.50;;;8.70;;
4353;SDS011;11018;51.258;6.806;2022-10-19T04:09:50;17.67;;;8.37;;
4353;SDS011;11018;51.258;6.806;2022-10-19T04:12:16;20.80;;;9.50;;
4353;SDS011;11018;51.258;6.806;2022-10-19T04:14:41;18.83;;;9.40;;
4353;SDS011;11018;51.258;6.806;2022-10-19T04:17:07;20.97;;;9.53;;
4353;SDS011;11018;51.258;6.806;2022-10-19T04:19:34;20.30;;;9.20;;
4353;SDS011;11018;51.258;6.806;2022-10-19T04:22:00;20.90;;;10.17;;
4353;SDS011;11018;51.258;6.806;2022-10-19T04:24:25;25.17;;;9.68;;
4353;SDS011;11018;51.258;6.806;2022-10-19T04:26:51;22.67;;;9.50;;
4353;SDS011;11018;51.258;6.806;2022-10-19T04:29:20;18.23;;;9.00;;
4353;SDS011;11018;51.258;6.806;2022-10-19T04:31:47;22.87;;;9.40;;
4353;SDS011;11018;51.258;6.806;2022-10-19T04:34:14;19.80;;;9.20;;
4353;SDS011;11018;51.258;6.806;2022-10-19T04:36:40;26.52;;;9.93;;
4353;SDS011;11018;51.258;6.806;2022-10-19T04:39:05;33.53;;;12.40;;
4353;SDS011;11018;51.258;6.806;2022-10-19T04:41:31;22.93;;;10.07;;
4353;SDS011;11018;51.258;6.806;2022-10-19T04:43:58;17.55;;;9.52;;
4353;SDS011;11018;51.258;6.806;2022-10-19T04:46:26;22.98;;;10.07;;
4353;SDS011;11018;51.258;6.806;2022-10-19T04:48:52;22.85;;;10.98;;
4353;SDS011;11018;51.258;6.806;2022-10-19T04:51:19;24.25;;;10.55;;
4353;SDS011;11018;51.258;6.806;2022-10-19T04:53:45;23.90;;;10.63;;
4353;SDS011;11018;51.258;6.806;2022-10-19T04:56:19;20.35;;;10.02;;
4353;SDS011;11018;51.258;6.806;2022-10-19T04:58:46;23.20;;;10.67;;
4353;SDS011;11018;51.258;6.806;2022-10-19T05:01:16;33.72;;;11.63;;
4353;SDS011;11018;51.258;6.806;2022-10-19T05:03:43;21.33;;;11.48;;
4353;SDS011;11018;51.258;6.806;2022-10-19T05:06:10;23.65;;;11.05;;
4353;SDS011;11018;51.258;6.806;2022-10-19T05:08:36;26.13;;;12.60;;
4353;SDS011;11018;51.258;6.806;2022-10-19T05:11:04;26.15;;;12.15;;
4353;SDS011;11018;51.258;6.806;2022-10-19T05:13:32;35.90;;;12.88;;
4353;SDS011;11018;51.258;6.806;2022-10-19T05:15:58;27.85;;;12.60;;
4353;SDS011;11018;51.258;6.806;2022-10-19T05:18:25;25.17;;;12.30;;
4353;SDS011;11018;51.258;6.806;2022-10-19T05:20:54;31.88;;;13.57;;
4353;SDS011;11018;51.258;6.806;2022-10-19T05:23:25;38.33;;;13.45;;
4353;SDS011;11018;51.258;6.806;2022-10-19T05:25:57;49.00;;;14.93;;
4353;SDS011;11018;51.258;6.806;2022-10-19T05:28:27;41.28;;;14.20;;
4353;SDS011;11018;51.258;6.806;2022-10-19T05:30:53;39.75;;;16.00;;
4353;SDS011;11018;51.258;6.806;2022-10-19T05:33:19;35.80;;;16.20;;
4353;SDS011;11018;51.258;6.806;2022-10-19T05:35:45;39.90;;;15.50;;
4353;SDS011;11018;51.258;6.806;2022-10-19T05:38:10;43.17;;;15.90;;
4353;SDS011;11018;51.258;6.806;2022-10-19T05:40:36;27.80;;;15.60;;
4353;SDS011;11018;51.258;6.806;2022-10-19T05:43:01;24.63;;;12.90;;
4353;SDS011;11018;51.258;6.806;2022-10-19T05:45:27;28.85;;;14.57;;
4353;SDS011;11018;51.258;6.806;2022-10-19T05:47:52;41.53;;;16.70;;
4353;SDS011;11018;51.258;6.806;2022-10-19T05:50:18;35.83;;;15.52;;
4353;SDS011;11018;51.258;6.806;2022-10-19T05:52:43;30.48;;;14.93;;
4353;SDS011;11018;51.258;6.806;2022-10-19T05:55:09;34.80;;;15.17;;
4353;SDS011;11018;51.258;6.806;2022-10-19T05:57:34;36.03;;;16.50;;
4353;SDS011;11018;51.258;6.806;2022-10-19T06:00:00;29.70;;;15.57;;
4353;SDS011;11018;51.258;6.806;2022-10-19T06:02:27;39.03;;;15.93;;
4353;SDS011;11018;51.258;6.806;2022-10-19T06:04:53;39.80;;;15.93;;
4353;SDS011;11018;51.258;6.806;2022-10-19T06:07:19;35.43;;;17.70;;
4353;SDS011;11018;51.258;6.806;2022-10-19T06:09:44;33.30;;;16.37;;
4353;SDS011;11018;51.258;6.806;2022-10-19T06:12:13;39.30;;;17.50;;
4353;SDS011;11018;51.258;6.806;2022-10-19T06:14:38;32.20;;;15.53;;
4353;SDS011;11018;51.258;6.806;2022-10-19T06:17:04;37.60;;;16.90;;
4353;SDS011;11018;51.258;6.806;2022-10-19T06:19:30;38.10;;;16.95;;
4353;SDS011;11018;51.258;6.806;2022-10-19T06:21:56;33.65;;;15.38;;
4353;SDS011;11018;51.258;6.806;2022-10-19T06:24:21;32.53;;;16.95;;
4353;SDS011;11018;51.258;6.806;2022-10-19T06:26:47;37.60;;;16.83;;
4353;SDS011;11018;51.258;6.806;2022-10-19T06:29:12;36.05;;;16.15;;
4353;SDS011;11018;51.258;6.806;2022-10-19T06:31:38;33.85;;;16.77;;
4353;SDS011;11018;51.258;6.806;2022-10-19T06:34:04;34.05;;;16.38;;
4353;SDS011;11018;51.258;6.806;2022-10-19T06:36:30;30.52;;;16.08;;
4353;SDS011;11018;51.258;6.806;2022-10-19T06:38:56;38.42;;;17.70;;
4353;SDS011;11018;51.258;6.806;2022-10-19T06:41:23;48.50;;;18.33;;
4353;SDS011;11018;51.258;6.806;2022-10-19T06:43:49;37.03;;;16.88;;
4353;SDS011;11018;51.258;6.806;2022-10-19T06:46:16;29.02;;;16.58;;
4353;SDS011;11018;51.258;6.806;2022-10-19T06:48:54;32.75;;;18.00;;
4353;SDS011;11018;51.258;6.806;2022-10-19T06:51:21;31.45;;;17.10;;
4353;SDS011;11018;51.258;6.806;2022-10-19T06:53:49;33.47;;;17.65;;
4353;SDS011;11018;51.258;6.806;2022-10-19T06:56:14;33.17;;;18.03;;
4353;SDS011;11018;51.258;6.806;2022-10-19T06:58:40;30.47;;;17.33;;
4353;SDS011;11018;51.258;6.806;2022-10-19T07:01:07;34.87;;;17.67;;
4353;SDS011;11018;51.258;6.806;2022-10-19T07:03:33;37.30;;;17.75;;
4353;SDS011;11018;51.258;6.806;2022-10-19T07:06:01;32.00;;;17.00;;
4353;SDS011;11018;51.258;6.806;2022-10-19T07:08:31;51.65;;;18.50;;
4353;SDS011;11018;51.258;6.806;2022-10-19T07:10:59;34.67;;;16.77;;
4353;SDS011;11018;51.258;6.806;2022-10-19T07:13:26;33.05;;;17.58;;
4353;SDS011;11018;51.258;6.806;2022-10-19T07:15:56;37.53;;;18.35;;
4353;SDS011;11018;51.258;6.806;2022-10-19T07:18:29;31.92;;;19.25;;
4353;SDS011;11018;51.258;6.806;2022-10-19T07:20:59;40.25;;;18.17;;
4353;SDS011;11018;51.258;6.806;2022-10-19T07:23:26;36.83;;;18.60;;
4353;SDS011;11018;51.258;6.806;2022-10-19T07:25:53;37.47;;;19.35;;
4353;SDS011;11018;51.258;6.806;2022-10-19T07:28:24;33.45;;;19.40;;
4353;SDS011;11018;51.258;6.806;2022-10-19T07:30:50;35.27;;;20.43;;
4353;SDS011;11018;51.258;6.806;2022-10-19T07:33:16;35.97;;;20.40;;
4353;SDS011;11018;51.258;6.806;2022-10-19T07:35:41;37.30;;;18.80;;
4353;SDS011;11018;51.258;6.806;2022-10-19T07:38:07;29.97;;;18.30;;
4353;SDS011;11018;51.258;6.806;2022-10-19T07:40:33;37.60;;;19.00;;
4353;SDS011;11018;51.258;6.806;2022-10-19T07:42:59;37.60;;;19.10;;
4353;SDS011;11018;51.258;6.806;2022-10-19T07:45:24;41.53;;;20.15;;
4353;SDS011;11018;51.258;6.806;2022-10-19T07:47:50;35.05;;;18.20;;
4353;SDS011;11018;51.258;6.806;2022-10-19T07:50:15;33.28;;;18.20;;
4353;SDS011;11018;51.258;6.806;2022-10-19T07:52:41;32.95;;;18.42;;
4353;SDS011;11018;51.258;6.806;2022-10-19T07:55:07;34.27;;;18.07;;
4353;SDS011;11018;51.258;6.806;2022-10-19T07:57:32;30.38;;;17.77;;
4353;SDS011;11018;51.258;6.806;2022-10-19T07:59:58;29.20;;;18.07;;
4353;SDS011;11018;51.258;6.806;2022-10-19T08:02:23;38.97;;;17.73;;
4353;SDS011;11018;51.258;6.806;2022-10-19T08:04:49;52.00;;;19.10;;
4353;SDS011;11018;51.258;6.806;2022-10-19T08:07:15;37.07;;;17.93;;
4353;SDS011;11018;51.258;6.806;2022-10-19T08:09:40;35.73;;;15.33;;
4353;SDS011;11018;51.258;6.806;2022-10-19T08:12:06;28.43;;;16.10;;
4353;SDS011;11018;51.258;6.806;2022-10-19T08:14:31;28.88;;;13.82;;
4353;SDS011;11018;51.258;6.806;2022-10-19T08:16:57;33.65;;;14.85;;
4353;SDS011;11018;51.258;6.806;2022-10-19T08:19:23;25.35;;;13.20;;
4353;SDS011;11018;51.258;6.806;2022-10-19T08:21:49;21.53;;;12.50;;
4353;SDS011;11018;51.258;6.806;2022-10-19T08:24:15;24.67;;;12.07;;
4353;SDS011;11018;51.258;6.806;2022-10-19T08:26:41;23.00;;;11.57;;
4353;SDS011;11018;51.258;6.806;2022-10-19T08:29:11;26.73;;;14.33;;
4353;SDS011;11018;51.258;6.806;2022-10-19T08:31:39;24.58;;;11.35;;
4353;SDS011;11018;51.258;6.806;2022-10-19T08:34:06;24.27;;;11.17;;
4353;SDS011;11018;51.258;6.806;2022-10-19T08:36:32;18.17;;;10.15;;
4353;SDS011;11018;51.258;6.806;2022-10-19T08:38:59;19.60;;;9.70;;
4353;SDS011;11018;51.258;6.806;2022-10-19T08:41:29;22.02;;;9.35;;
4353;SDS011;11018;51.258;6.806;2022-10-19T08:49:07;15.95;;;8.63;;
4353;SDS011;11018;51.258;6.806;2022-10-19T08:51:43;15.73;;;7.20;;
4353;SDS011;11018;51.258;6.806;2022-10-19T08:54:13;17.00;;;8.20;;
4353;SDS011;11018;51.258;6.806;2022-10-19T08:56:46;18.58;;;7.45;;
4353;SDS011;11018;51.258;6.806;2022-10-19T09:01:51;16.70;;;7.30;;
4353;SDS011;11018;51.258;6.806;2022-10-19T09:10:03;12.10;;;6.85;;
4353;SDS011;11018;51.258;6.806;2022-10-19T09:12:49;21.05;;;6.82;;
4353;SDS011;11018;51.258;6.806;2022-10-19T09:15:37;16.13;;;6.68;;
4353;SDS011;11018;51.258;6.806;2022-10-19T09:18:21;16.50;;;6.40;;
4353;SDS011;11018;51.258;6.806;2022-10-19T09:20:48;13.18;;;5.90;;
4353;SDS011;11018;51.258;6.806;2022-10-19T09:26:04;21.85;;;6.50;;
4353;SDS011;11018;51.258;6.806;2022-10-19T09:31:36;16.85;;;5.63;;
4353;SDS011;11018;51.258;6.806;2022-10-19T09:34:05;20.05;;;6.00;;
4353;SDS011;11018;51.258;6.806;2022-10-19T09:36:43;11.70;;;4.30;;
4353;SDS011;11018;51.258;6.806;2022-10-19T09:39:13;12.45;;;4.70;;
4353;SDS011;11018;51.258;6.806;2022-10-19T09:41:53;13.63;;;4.70;;
4353;SDS011;11018;51.258;6.806;2022-10-19T09:44:23;10.65;;;4.32;;
4353;SDS011;11018;51.258;6.806;2022-10-19T09:46:51;11.50;;;4.28;;
4353;SDS011;11018;51.258;6.806;2022-10-19T09:49:36;14.68;;;3.80;;
4353;SDS011;11018;51.258;6.806;2022-10-19T09:55:01;10.93;;;4.20;;
4353;SDS011;11018;51.258;6.806;2022-10-19T09:57:28;19.77;;;6.28;;
4353;SDS011;11018;51.258;6.806;2022-10-19T09:59:54;16.40;;;4.78;;
4353;SDS011;11018;51.258;6.806;2022-10-19T10:02:21;13.30;;;5.15;;
4353;SDS011;11018;51.258;6.806;2022-10-19T10:04:54;13.18;;;4.60;;
4353;SDS011;11018;51.258;6.806;2022-10-19T10:07:27;13.40;;;5.18;;
4353;SDS011;11018;51.258;6.806;2022-10-19T10:09:59;16.23;;;4.60;;
4353;SDS011;11018;51.258;6.806;2022-10-19T10:12:24;14.60;;;5.22;;
4353;SDS011;11018;51.258;6.806;2022-10-19T10:14:50;14.82;;;5.65;;
4353;SDS011;11018;51.258;6.806;2022-10-19T10:17:18;16.80;;;5.88;;
4353;SDS011;11018;51.258;6.806;2022-10-19T10:22:28;15.20;;;5.40;;
4353;SDS011;11018;51.258;6.806;2022-10-19T10:24:56;15.65;;;4.75;;
4353;SDS011;11018;51.258;6.806;2022-10-19T10:27:28;21.67;;;6.50;;
4353;SDS011;11018;51.258;6.806;2022-10-19T10:29:54;19.08;;;5.90;;
4353;SDS011;11018;51.258;6.806;2022-10-19T10:32:20;17.65;;;6.70;;
4353;SDS011;11018;51.258;6.806;2022-10-19T10:37:37;57.22;;;9.73;;
4353;SDS011;11018;51.258;6.806;2022-10-19T10:40:22;12.32;;;5.80;;
4353;SDS011;11018;51.258;6.806;2022-10-19T10:42:52;13.48;;;5.03;;
4353;SDS011;11018;51.258;6.806;2022-10-19T10:45:25;12.40;;;5.13;;
4353;SDS011;11018;51.258;6.806;2022-10-19T10:47:56;16.13;;;5.70;;
4353;SDS011;11018;51.258;6.806;2022-10-19T10:50:30;12.10;;;5.20;;
4353;SDS011;11018;51.258;6.806;2022-10-19T10:52:59;20.30;;;6.32;;
4353;SDS011;11018;51.258;6.806;2022-10-19T10:55:31;16.95;;;5.20;;
4353;SDS011;11018;51.258;6.806;2022-10-19T10:58:14;12.80;;;5.30;;
4353;SDS011;11018;51.258;6.806;2022-10-19T11:00:45;15.80;;;4.85;;
4353;SDS011;11018;51.258;6.806;2022-10-19T11:03:18;12.88;;;4.70;;
4353;SDS011;11018;51.258;6.806;2022-10-19T11:05:56;15.35;;;4.70;;
4353;SDS011;11018;51.258;6.806;2022-10-19T11:11:17;17.30;;;5.00;;
4353;SDS011;11018;51.258;6.806;2022-10-19T11:16:23;9.82;;;3.65;;
4353;SDS011;11018;51.258;6.806;2022-10-19T11:19:01;14.45;;;3.90;;
4353;SDS011;11018;51.258;6.806;2022-10-19T11:21:55;17.55;;;4.20;;
4353;SDS011;11018;51.258;6.806;2022-10-19T11:25:10;15.02;;;3.92;;
4353;SDS011;11018;51.258;6.806;2022-10-19T11:33:41;16.85;;;4.57;;
4353;SDS011;11018;51.258;6.806;2022-10-19T11:36:18;12.60;;;4.00;;
4353;SDS011;11018;51.258;6.806;2022-10-19T11:38:54;14.93;;;4.80;;
4353;SDS011;11018;51.258;6.806;2022-10-19T11:44:22;8.60;;;4.00;;
4353;SDS011;11018;51.258;6.806;2022-10-19T11:50:20;15.70;;;4.53;;
4353;SDS011;11018;51.258;6.806;2022-10-19T11:53:06;18.30;;;4.68;;
4353;SDS011;11018;51.258;6.806;2022-10-19T11:58:24;13.55;;;4.60;;
4353;SDS011;11018;51.258;6.806;2022-10-19T12:01:22;12.65;;;4.10;;
4353;SDS011;11018;51.258;6.806;2022-10-19T12:04:18;11.55;;;4.03;;
4353;SDS011;11018;51.258;6.806;2022-10-19T12:13:02;14.18;;;4.45;;
4353;SDS011;11018;51.258;6.806;2022-10-19T12:18:03;10.75;;;4.00;;
4353;SDS011;11018;51.258;6.806;2022-10-19T12:20:38;16.98;;;4.10;;
4353;SDS011;11018;51.258;6.806;2022-10-19T12:23:16;9.77;;;4.30;;
4353;SDS011;11018;51.258;6.806;2022-10-19T12:25:51;20.60;;;4.47;;
4353;SDS011;11018;51.258;6.806;2022-10-19T12:28:24;11.93;;;4.40;;
4353;SDS011;11018;51.258;6.806;2022-10-19T12:30:53;10.30;;;4.70;;
4353;SDS011;11018;51.258;6.806;2022-10-19T12:41:02;11.60;;;3.95;;
4353;SDS011;11018;51.258;6.806;2022-10-19T12:46:27;12.07;;;3.67;;
4353;SDS011;11018;51.258;6.806;2022-10-19T12:51:58;10.00;;;3.50;;
4353;SDS011;11018;51.258;6.806;2022-10-19T12:54:26;10.93;;;3.50;;
4353;SDS011;11018;51.258;6.806;2022-10-19T12:56:54;11.85;;;3.83;;
4353;SDS011;11018;51.258;6.806;2022-10-19T12:59:25;16.15;;;4.25;;
4353;SDS011;11018;51.258;6.806;2022-10-19T13:01:56;19.50;;;4.25;;
4353;SDS011;11018;51.258;6.806;2022-10-19T13:04:23;14.30;;;4.18;;
4353;SDS011;11018;51.258;6.806;2022-10-19T13:14:53;8.90;;;3.80;;
4353;SDS011;11018;51.258;6.806;2022-10-19T13:23:35;8.68;;;3.38;;
4353;SDS011;11018;51.258;6.806;2022-10-19T13:40:58;9.65;;;3.35;;
4353;SDS011;11018;51.258;6.806;2022-10-19T13:43:33;6.45;;;2.92;;
4353;SDS011;11018;51.258;6.806;2022-10-19T13:46:04;9.10;;;3.50;;
4353;SDS011;11018;51.258;6.806;2022-10-19T13:51:26;10.30;;;4.18;;
4353;SDS011;11018;51.258;6.806;2022-10-19T14:07:46;12.18;;;2.95;;
4353;SDS011;11018;51.258;6.806;2022-10-19T14:10:32;12.13;;;3.15;;
4353;SDS011;11018;51.258;6.806;2022-10-19T14:12:58;7.43;;;3.03;;
4353;SDS011;11018;51.258;6.806;2022-10-19T14:15:27;6.18;;;3.20;;
4353;SDS011;11018;51.258;6.806;2022-10-19T14:17:55;6.32;;;2.72;;
4353;SDS011;11018;51.258;6.806;2022-10-19T14:22:50;8.15;;;2.90;;
4353;SDS011;11018;51.258;6.806;2022-10-19T14:25:23;8.43;;;2.88;;
4353;SDS011;11018;51.258;6.806;2022-10-19T14:28:00;10.02;;;3.70;;
4353;SDS011;11018;51.258;6.806;2022-10-19T14:30:30;10.43;;;3.20;;
4353;SDS011;11018;51.258;6.806;2022-10-19T14:32:59;10.10;;;3.38;;
4353;SDS011;11018;51.258;6.806;2022-10-19T14:37:53;12.35;;;3.15;;
4353;SDS011;11018;51.258;6.806;2022-10-19T14:40:27;10.50;;;3.70;;
4353;SDS011;11018;51.258;6.806;2022-10-19T14:42:55;13.77;;;3.20;;
4353;SDS011;11018;51.258;6.806;2022-10-19T14:45:26;10.68;;;3.25;;
4353;SDS011;11018;51.258;6.806;2022-10-19T14:48:02;10.85;;;3.95;;
4353;SDS011;11018;51.258;6.806;2022-10-19T14:50:49;12.63;;;3.40;;
4353;SDS011;11018;51.258;6.806;2022-10-19T14:53:37;13.30;;;3.50;;
4353;SDS011;11018;51.258;6.806;2022-10-19T14:56:11;10.25;;;4.45;;
4353;SDS011;11018;51.258;6.806;2022-10-19T14:58:44;8.30;;;3.63;;
4353;SDS011;11018;51.258;6.806;2022-10-19T15:01:17;11.40;;;3.72;;
4353;SDS011;11018;51.258;6.806;2022-10-19T15:03:44;7.93;;;3.40;;
4353;SDS011;11018;51.258;6.806;2022-10-19T15:06:17;21.00;;;4.50;;
4353;SDS011;11018;51.258;6.806;2022-10-19T15:08:47;8.33;;;3.03;;
4353;SDS011;11018;51.258;6.806;2022-10-19T15:14:18;11.90;;;3.30;;
4353;SDS011;11018;51.258;6.806;2022-10-19T15:16:56;15.18;;;3.90;;
4353;SDS011;11018;51.258;6.806;2022-10-19T15:24:38;11.50;;;3.30;;
4353;SDS011;11018;51.258;6.806;2022-10-19T15:27:19;8.35;;;3.40;;
4353;SDS011;11018;51.258;6.806;2022-10-19T15:29:53;13.17;;;3.20;;
4353;SDS011;11018;51.258;6.806;2022-10-19T15:32:21;11.30;;;3.35;;
4353;SDS011;11018;51.258;6.806;2022-10-19T15:34:49;13.23;;;3.40;;
4353;SDS011;11018;51.258;6.806;2022-10-19T15:37:17;16.33;;;3.70;;
4353;SDS011;11018;51.258;6.806;2022-10-19T15:39:44;10.68;;;4.75;;
4353;SDS011;11018;51.258;6.806;2022-10-19T15:50:43;13.05;;;6.30;;
4353;SDS011;11018;51.258;6.806;2022-10-19T15:53:12;13.23;;;4.28;;
4353;SDS011;11018;51.258;6.806;2022-10-19T15:55:38;12.90;;;4.38;;
4353;SDS011;11018;51.258;6.806;2022-10-19T15:58:04;9.80;;;3.97;;
4353;SDS011;11018;51.258;6.806;2022-10-19T16:00:30;8.30;;;4.10;;
4353;SDS011;11018;51.258;6.806;2022-10-19T16:02:56;13.00;;;4.10;;
4353;SDS011;11018;51.258;6.806;2022-10-19T16:05:22;10.60;;;3.53;;
4353;SDS011;11018;51.258;6.806;2022-10-19T16:07:48;10.50;;;3.70;;
4353;SDS011;11018;51.258;6.806;2022-10-19T16:10:14;18.40;;;4.18;;
4353;SDS011;11018;51.258;6.806;2022-10-19T16:12:50;11.85;;;4.03;;
4353;SDS011;11018;51.258;6.806;2022-10-19T16:15:17;9.68;;;3.80;;
4353;SDS011;11018;51.258;6.806;2022-10-19T16:17:48;11.50;;;3.97;;
4353;SDS011;11018;51.258;6.806;2022-10-19T16:20:16;16.05;;;5.00;;
4353;SDS011;11018;51.258;6.806;2022-10-19T16:22:42;17.60;;;4.77;;
4353;SDS011;11018;51.258;6.806;2022-10-19T16:25:09;14.05;;;4.15;;
4353;SDS011;11018;51.258;6.806;2022-10-19T16:27:35;10.32;;;4.80;;
4353;SDS011;11018;51.258;6.806;2022-10-19T16:30:00;8.77;;;3.95;;
4353;SDS011;11018;51.258;6.806;2022-10-19T16:32:26;11.52;;;3.83;;
4353;SDS011;11018;51.258;6.806;2022-10-19T16:34:51;11.03;;;4.03;;
4353;SDS011;11018;51.258;6.806;2022-10-19T16:37:17;12.57;;;4.70;;
4353;SDS011;11018;51.258;6.806;2022-10-19T16:39:42;12.83;;;4.50;;
4353;SDS011;11018;51.258;6.806;2022-10-19T16:42:08;10.10;;;4.47;;
4353;SDS011;11018;51.258;6.806;2022-10-19T16:44:33;18.00;;;4.72;;
4353;SDS011;11018;51.258;6.806;2022-10-19T16:46:59;11.53;;;4.70;;
4353;SDS011;11018;51.258;6.806;2022-10-19T16:49:25;15.30;;;4.63;;
4353;SDS011;11018;51.258;6.806;2022-10-19T16:51:51;11.77;;;4.50;;
4353;SDS011;11018;51.258;6.806;2022-10-19T16:54:16;46.40;;;10.03;;
4353;SDS011;11018;51.258;6.806;2022-10-19T16:56:43;24.98;;;7.85;;
4353;SDS011;11018;51.258;6.806;2022-10-19T16:59:13;21.98;;;7.80;;
4353;SDS011;11018;51.258;6.806;2022-10-19T17:01:41;21.40;;;8.60;;
4353;SDS011;11018;51.258;6.806;2022-10-19T17:04:08;25.95;;;8.82;;
4353;SDS011;11018;51.258;6.806;2022-10-19T17:06:35;21.30;;;9.55;;
4353;SDS011;11018;51.258;6.806;2022-10-19T17:09:01;19.23;;;8.50;;
4353;SDS011;11018;51.258;6.806;2022-10-19T17:11:29;22.35;;;9.23;;
4353;SDS011;11018;51.258;6.806;2022-10-19T17:13:57;19.63;;;7.43;;
4353;SDS011;11018;51.258;6.806;2022-10-19T17:16:25;20.27;;;9.38;;
4353;SDS011;11018;51.258;6.806;2022-10-19T17:18:53;18.05;;;7.75;;
4353;SDS011;11018;51.258;6.806;2022-10-19T17:21:20;19.13;;;8.00;;
4353;SDS011;11018;51.258;6.806;2022-10-19T17:23:52;19.00;;;8.48;;
4353;SDS011;11018;51.258;6.806;2022-10-19T17:26:29;22.60;;;9.60;;
4353;SDS011;11018;51.258;6.806;2022-10-19T17:28:57;24.48;;;9.85;;
4353;SDS011;11018;51.258;6.806;2022-10-19T17:31:23;31.83;;;11.57;;
4353;SDS011;11018;51.258;6.806;2022-10-19T17:33:50;21.17;;;9.10;;
4353;SDS011;11018;51.258;6.806;2022-10-19T17:36:17;21.00;;;8.95;;
4353;SDS011;11018;51.258;6.806;2022-10-19T17:38:49;19.27;;;9.32;;
4353;SDS011;11018;51.258;6.806;2022-10-19T17:41:17;22.65;;;11.20;;